Latest Weather Observations for Flinders Island Airport

IDT60801

Issued at 12:05 pm EST Saturday 2 August 2014 (issued every 30 minutes, with the page automatically refreshed every 10 minutes)

About weather observations | Map of weather stations | Latest weather observations for TAS | Other Formats
Station Details ID: 099005 Name: FLINDERS ISLAND AIRPORT Lat: -40.09 Lon: 148.00 Height: 9.0 m
Data from the previous 72 hours. | See also: Recent months at Flinders Island Airport
Date/Time
EST
Temp
°C
App
Temp
°C
Dew
Point
Rel
Hum
%
Delta-T
°C
Wind Press
QNH
hPa
Press
MSL
hPa
Rain
since 9 am
mm
Dir
 
Spd
km/h
Gust
km/h
Spd
kts
Gust
kts
02/12:00pm 11.1 3.8 4.3 63 3.0 WSW 32 41 17 22 1026.5 1026.5 0.2
02/11:30am 10.7 3.0 2.5 57 3.5 WSW 32 39 17 21 1026.5 - 0.2
02/11:00am 10.8 4.8 3.4 60 3.2 WSW 24 30 13 16 1026.5 1026.5 0.2
02/10:30am 10.2 3.8 0.8 52 3.9 SW 24 32 13 17 1026.4 - 0.2
02/10:00am 10.0 2.6 1.6 56 3.5 SW 30 35 16 19 1026.0 1026.0 0.0
02/09:30am 9.7 2.9 1.1 55 3.5 SSW 26 32 14 17 1025.6 - 0.0
02/09:00am 9.2 2.4 0.9 56 3.4 SW 26 32 14 17 1025.3 1025.3 1.4
02/08:30am 9.0 2.9 0.7 56 3.4 SW 22 28 12 15 1024.8 - 1.4
02/08:00am 8.4 2.4 0.9 59 3.0 SSW 22 28 12 15 1024.2 1024.2 1.4
02/07:30am 7.7 2.0 0.4 60 2.9 SW 20 28 11 15 1023.6 - 1.4
02/07:00am 8.2 0.5 0.0 56 3.2 SSW 30 37 16 20 1023.2 1023.2 1.4
02/06:30am 8.2 0.2 0.2 57 3.2 SSW 32 39 17 21 1022.5 - 1.4
02/06:00am 8.2 1.0 0.7 59 3.0 SSW 28 37 15 20 1022.0 1022.0 1.4
02/05:30am 8.1 0.4 0.1 57 3.2 SSW 30 35 16 19 1021.6 - 1.4
02/05:00am 8.1 0.3 -0.6 54 3.4 SW 30 37 16 20 1021.2 1021.2 1.4
02/04:30am 8.3 0.1 -1.2 51 3.6 SSW 32 41 17 22 1020.6 - 1.4
02/04:00am 8.3 0.2 -0.4 54 3.4 SSW 32 44 17 24 1020.1 1020.1 1.4
02/03:30am 8.2 -0.4 0.0 56 3.2 SSW 35 43 19 23 1019.8 - 1.4
02/03:00am 8.2 -0.4 0.4 58 3.1 SSW 35 43 19 23 1019.3 1019.3 1.4
02/02:30am 8.2 0.1 0.9 60 2.9 SSW 33 41 18 22 1018.9 - 1.4
02/02:00am 8.3 -0.3 0.5 58 3.1 SSW 35 44 19 24 1018.3 1018.3 1.4
02/01:30am 8.2 -1.1 0.9 60 2.9 SSW 39 48 21 26 1017.5 - 1.4
02/01:00am 8.5 -0.4 0.5 57 3.2 SSW 37 46 20 25 1016.9 1017.0 1.4
02/12:30am 8.7 -0.6 0.9 58 3.2 SSW 39 48 21 26 1016.5 - 1.4
02/12:00am 8.8 -0.8 1.0 58 3.2 SSW 41 50 22 27 1016.0 1016.1 1.4
 
Date/Time
EST
Temp
°C
App
Temp
°C
Dew
Point
Rel
Hum
%
Delta-T
°C
Wind Press
QNH
hPa
Press
MSL
hPa
Rain
since 9 am
mm
Dir
 
Spd
km/h
Gust
km/h
Spd
kts
Gust
kts
01/11:30pm 9.2 -0.5 0.6 55 3.5 SSW 41 54 22 29 1015.3 - 1.4
01/11:00pm 9.1 -0.1 1.0 57 3.3 SSW 39 50 21 27 1014.7 1014.8 1.4
01/10:30pm 9.1 -0.2 0.8 56 3.4 SSW 39 48 21 26 1013.9 - 1.4
01/10:00pm 8.9 0.7 2.5 64 2.7 SSW 35 44 19 24 1013.2 1013.3 1.4
01/09:30pm 8.6 1.0 2.6 66 2.5 SSW 32 37 17 20 1012.5 - 1.4
01/09:00pm 8.3 2.3 3.6 72 2.0 S 24 32 13 17 1011.9 1012.0 1.4
01/08:30pm 7.9 0.9 4.3 78 1.6 S 30 46 16 25 1011.0 - 1.4
01/08:22pm 7.5 0.9 4.3 80 1.4 S 28 41 15 22 1010.7 - 1.4
01/08:00pm 6.4 3.3 3.4 81 1.3 ENE 9 13 5 7 1009.4 1009.5 1.4
01/07:30pm 6.4 2.4 3.0 79 1.4 SE 13 28 7 15 1009.0 - 1.4
01/07:00pm 6.6 -0.3 2.5 75 1.7 SSE 28 54 15 29 1007.8 1007.8 0.8
01/06:38pm 8.2 1.4 3.1 70 2.2 S 28 70 15 38 1006.2 - 0.6
01/06:30pm 8.1 4.9 2.8 69 2.2 SSE 9 13 5 7 1005.7 - 0.6
01/06:00pm 9.2 4.8 2.8 64 2.7 S 15 19 8 10 1004.3 1004.3 0.6
01/05:30pm 8.7 2.6 2.9 67 2.5 W 24 33 13 18 1003.2 - 0.6
01/05:00pm 9.0 1.4 3.0 66 2.6 W 32 43 17 23 1002.7 1002.7 0.6
01/04:30pm 9.6 0.5 4.0 68 2.5 W 41 50 22 27 1002.3 - 0.6
01/04:00pm 9.9 2.4 4.3 68 2.5 W 33 43 18 23 1001.7 1001.7 0.6
01/03:30pm 10.4 1.7 4.1 65 2.8 W 39 48 21 26 1000.8 - 0.6
01/03:00pm 9.9 1.6 4.3 68 2.5 W 37 48 20 26 1000.8 1000.8 0.6
01/02:45pm 10.2 2.3 4.6 68 2.5 W 35 54 19 29 1000.6 - 0.6
01/02:30pm 9.9 1.6 4.3 68 2.5 W 37 46 20 25 1000.3 - 0.6
01/02:00pm 9.8 2.0 5.0 72 2.2 W 35 48 19 26 999.7 999.7 0.6
01/01:42pm 9.4 1.5 4.6 72 2.1 W 35 52 19 28 999.4 - 0.6
01/01:30pm 9.2 1.8 5.0 75 1.9 W 33 48 18 26 999.3 - 0.6
01/01:18pm 9.1 1.4 5.3 77 1.7 WNW 35 46 19 25 999.2 - 0.6
01/01:00pm 8.8 1.4 5.2 78 1.6 WNW 33 46 18 25 999.2 999.2 0.6
01/12:30pm 8.6 2.6 5.4 80 1.4 WNW 26 37 14 20 998.8 - 0.6
01/12:17pm 7.7 1.2 4.7 81 1.3 W 28 35 15 19 999.0 - 0.6
01/12:00pm 7.7 0.9 5.0 83 1.2 W 30 37 16 20 998.8 998.8 0.6
01/11:39am 7.1 -1.2 4.2 82 1.3 W 37 50 20 27 998.9 - 0.6
01/11:30am 7.1 -2.5 4.2 82 1.3 W 44 57 24 31 998.8 - 0.6
01/11:00am 7.7 -1.3 4.8 82 1.3 W 41 61 22 33 998.7 998.7 0.6
01/10:39am 6.9 -2.6 3.9 81 1.3 W 43 61 23 33 998.7 - 0.6
01/10:30am 7.2 -3.2 4.2 81 1.3 W 48 65 26 35 998.7 - 0.6
01/10:00am 8.2 -3.0 4.0 75 1.8 W 52 70 28 38 997.8 997.8 0.2
01/09:51am 8.4 -1.6 4.4 76 1.8 W 46 67 25 36 997.8 - 0.2
01/09:37am 7.9 -0.8 4.1 77 1.6 W 39 52 21 28 997.6 - 0.0
01/09:30am 8.0 -4.4 4.4 78 1.6 W 59 80 32 43 997.8 - 0.0
01/09:18am 8.6 -3.2 4.8 77 1.7 W 56 74 30 40 997.6 - 0.0
01/09:00am 8.3 -0.1 5.6 83 1.2 WNW 39 59 21 32 997.3 997.3 12.2
01/08:39am 7.4 1.0 5.0 85 1.1 NW 28 46 15 25 997.1 - 12.2
01/08:30am 7.2 1.1 5.0 86 1.0 NNW 26 35 14 19 997.1 - 12.2
01/08:25am 7.0 -0.2 4.8 86 1.0 WNW 32 39 17 21 997.2 - 12.2
01/08:23am 7.0 -0.2 5.0 87 0.9 WNW 32 39 17 21 997.2 - 12.2
01/08:16am 6.8 0.3 4.8 87 0.9 WNW 28 33 15 18 997.2 - 12.2
01/08:06am 6.5 -4.2 4.5 87 0.9 W 50 69 27 37 997.2 - 12.0
01/08:03am 6.4 -5.1 4.4 87 0.9 W 54 69 29 37 997.2 - 12.0
01/08:00am 6.3 -6.2 4.3 87 0.9 W 59 82 32 44 997.2 997.2 11.8
01/07:51am 6.5 -6.4 4.0 84 1.1 WSW 61 82 33 44 997.0 - 11.0
01/07:50am 6.6 -5.9 3.9 83 1.2 WSW 59 74 32 40 997.0 - 10.8
01/07:44am 7.4 -4.1 4.4 81 1.3 WSW 54 72 29 39 996.7 - 10.6
01/07:41am 7.2 -3.2 4.0 80 1.4 WSW 48 63 26 34 996.6 - 10.4
01/07:32am 7.8 -3.8 3.7 75 1.8 W 54 72 29 39 996.5 - 10.2
01/07:30am 8.0 -4.3 3.3 72 2.0 W 57 72 31 39 996.5 - 10.2
01/07:28am 8.6 -5.1 3.8 72 2.1 W 65 72 35 39 996.4 - 10.0
01/07:00am 8.4 -0.8 5.5 82 1.3 WNW 43 67 23 36 996.3 996.3 10.0
01/06:56am 8.3 -0.6 5.2 81 1.4 WNW 41 67 22 36 996.3 - 10.0
01/06:39am 6.6 -4.3 3.6 81 1.3 W 50 69 27 37 996.2 - 10.0
01/06:36am 6.3 -6.0 2.9 79 1.4 W 57 69 31 37 996.1 - 9.6
01/06:30am 8.8 0.5 4.4 74 1.9 W 37 61 20 33 995.9 - 9.0
01/06:03am 9.1 1.8 4.7 74 2.0 WNW 32 52 17 28 995.6 - 9.0
01/06:00am 9.3 2.5 5.1 75 1.9 WNW 30 41 16 22 995.6 995.6 9.0
01/05:30am 7.7 0.8 4.7 81 1.3 NW 30 43 16 23 996.1 - 9.0
01/05:01am 7.5 1.1 5.0 84 1.1 NW 28 48 15 26 996.3 - 8.8
01/05:00am 7.4 1.3 4.9 84 1.1 NW 26 48 14 26 996.4 996.4 8.8
01/04:40am 7.0 0.7 3.8 80 1.4 NW 26 35 14 19 996.1 - 8.8
01/04:30am 6.8 -1.7 3.4 79 1.4 WNW 37 56 20 30 996.2 - 8.8
01/04:20am 6.4 -3.5 2.5 76 1.6 WNW 44 54 24 29 996.6 - 8.2
01/04:18am 6.3 -7.3 2.4 76 1.6 W 63 83 34 45 996.5 - 7.8
01/04:17am 6.4 -7.6 2.3 75 1.7 W 65 83 35 45 996.3 - 7.6
01/04:13am 7.8 -6.1 2.9 71 2.1 W 65 80 35 43 996.0 - 7.2
01/04:11am 9.4 0.2 3.6 67 2.5 WNW 41 78 22 42 996.0 - 7.2
01/04:08am 10.1 1.2 2.9 61 3.1 WNW 39 57 21 31 995.8 - 7.2
01/04:00am 10.1 1.4 2.0 57 3.4 W 37 50 20 27 995.6 995.6 7.2
01/03:32am 10.0 0.0 1.1 54 3.7 W 43 61 23 33 995.6 - 7.2
01/03:30am 10.0 0.4 1.4 55 3.6 W 41 57 22 31 995.6 - 7.2
01/03:28am 9.9 0.8 1.8 57 3.4 W 39 57 21 31 995.6 - 7.2
01/03:00am 9.8 -1.1 1.2 55 3.6 W 48 61 26 33 995.8 995.8 7.2
01/02:31am 9.1 -0.1 3.5 68 2.4 W 41 65 22 35 995.6 - 7.2
01/02:30am 9.3 0.4 3.3 66 2.6 W 39 54 21 29 995.6 - 7.2
01/02:06am 9.4 0.1 3.2 65 2.7 W 41 59 22 32 995.4 - 7.2
01/02:00am 9.3 -0.6 2.9 64 2.8 W 44 59 24 32 995.5 995.5 7.2
01/01:44am 8.7 -0.4 1.8 62 2.9 WNW 39 57 21 31 995.3 - 7.2
01/01:30am 8.7 -1.8 1.4 60 3.0 WNW 46 61 25 33 995.2 - 7.2
01/01:13am 9.2 -2.7 1.9 60 3.0 W 54 72 29 39 995.4 - 7.2
01/01:00am 9.6 -2.6 2.7 62 3.0 W 56 70 30 38 995.2 995.2 7.2
01/12:40am 9.7 -1.4 4.3 69 2.4 W 52 70 28 38 994.7 - 7.2
01/12:30am 9.4 -2.0 4.8 73 2.1 W 54 67 29 36 994.7 - 7.2
01/12:03am 9.4 -2.9 5.0 74 2.0 WSW 59 78 32 42 994.7 - 7.2
01/12:00am 9.4 -3.7 4.8 73 2.1 WSW 63 78 34 42 994.7 994.7 7.2
 
Date/Time
EST
Temp
°C
App
Temp
°C
Dew
Point
Rel
Hum
%
Delta-T
°C
Wind Press
QNH
hPa
Press
MSL
hPa
Rain
since 9 am
mm
Dir
 
Spd
km/h
Gust
km/h
Spd
kts
Gust
kts
31/11:57pm 9.7 -4.2 4.7 71 2.2 WSW 67 78 36 42 994.7 - 7.2
31/11:33pm 10.3 -1.0 3.6 63 2.9 W 52 70 28 38 994.5 - 7.2
31/11:30pm 10.3 -0.2 3.6 63 2.9 W 48 65 26 35 994.5 - 7.2
31/11:00pm 9.5 -2.6 3.3 65 2.7 W 56 74 30 40 994.1 994.1 7.2
31/10:30pm 9.5 0.0 6.6 82 1.4 WNW 46 65 25 35 993.5 - 7.2
31/10:13pm 8.5 0.1 5.8 83 1.2 WNW 39 59 21 32 993.5 - 7.2
31/10:12pm 8.4 0.4 5.7 83 1.2 WNW 37 50 20 27 993.6 - 7.2
31/10:08pm 8.2 -0.2 5.5 83 1.2 WNW 39 48 21 26 993.8 - 7.2
31/10:00pm 8.0 -3.8 5.5 84 1.1 W 57 78 31 42 994.0 994.0 7.0
31/09:40pm 7.8 -4.2 4.7 81 1.4 W 57 76 31 41 993.3 - 6.0
31/09:37pm 8.4 -5.4 5.2 80 1.4 W 67 76 36 41 993.5 - 5.4
31/09:30pm 9.2 0.1 5.9 80 1.5 WNW 43 61 23 33 992.9 - 4.6
31/09:24pm 8.9 0.4 5.3 78 1.6 WNW 39 59 21 32 993.3 - 4.6
31/09:18pm 9.3 -3.1 4.9 74 2.0 W 59 78 32 42 993.6 - 4.6
31/09:11pm 9.8 -2.9 5.2 73 2.1 W 61 78 33 42 993.3 - 4.4
31/09:00pm 9.3 1.0 6.0 80 1.5 WNW 39 57 21 31 993.2 993.2 4.4
31/08:59pm 9.2 1.3 6.1 81 1.4 WNW 37 57 20 31 993.2 - 4.4
31/08:56pm 8.7 0.8 6.0 83 1.2 WNW 37 54 20 29 993.4 - 4.4
31/08:49pm 8.0 0.3 5.3 83 1.2 NW 35 43 19 23 993.4 - 4.4
31/08:41pm 8.1 -3.6 5.4 83 1.2 WNW 56 82 30 44 994.1 - 4.4
31/08:38pm 8.0 -3.0 5.1 82 1.3 WNW 52 82 28 44 994.3 - 4.2
31/08:30pm 8.8 -0.3 5.7 81 1.4 WNW 43 63 23 34 993.6 - 4.0
31/08:04pm 9.1 -1.8 5.5 78 1.6 W 52 72 28 39 993.8 - 3.8
31/08:00pm 9.2 -1.3 5.4 77 1.7 W 50 65 27 35 993.8 993.8 3.8
31/07:30pm 9.2 -2.6 4.6 73 2.0 WNW 56 82 30 44 993.6 - 3.4
31/07:28pm 9.3 -2.1 4.7 73 2.0 W 54 78 29 42 993.7 - 3.4
31/07:25pm 9.1 -2.4 4.5 73 2.0 W 54 63 29 34 993.7 - 3.4
31/07:09pm 10.0 -4.9 4.6 69 2.4 W 72 95 39 51 993.4 - 3.4
31/07:07pm 10.3 -4.6 4.5 67 2.6 W 72 85 39 46 993.4 - 3.4
31/07:03pm 10.7 -0.8 4.6 66 2.7 WNW 54 93 29 50 993.1 - 3.4
31/07:00pm 10.7 -0.4 4.6 66 2.8 WNW 52 70 28 38 992.9 992.9 3.4
31/06:30pm 8.4 -4.7 5.2 80 1.4 WNW 63 89 34 48 993.5 - 3.4
31/06:02pm 8.9 -5.2 5.6 80 1.5 W 69 95 37 51 993.5 - 3.2
31/06:00pm 8.7 -5.6 4.9 77 1.7 W 69 95 37 51 993.2 993.2 3.2
31/05:32pm 8.8 -4.8 6.1 83 1.2 W 67 91 36 49 993.0 - 2.4
31/05:30pm 8.7 -4.9 6.2 84 1.1 W 67 91 36 49 992.9 - 2.4
31/05:29pm 8.8 -4.8 6.2 84 1.2 W 67 89 36 48 992.9 - 2.4
31/05:01pm 9.2 -3.1 7.0 86 1.0 W 61 80 33 43 992.0 - 1.6
31/05:00pm 9.2 -2.7 7.0 86 1.0 W 59 80 32 43 992.1 992.1 1.4
31/04:40pm 9.2 -4.6 7.0 86 1.0 W 69 91 37 49 991.7 - 0.8
31/04:32pm 9.3 -5.8 7.3 87 0.9 W 76 95 41 51 991.5 - 0.8
31/04:30pm 9.3 -6.5 7.3 87 0.9 W 80 95 43 51 991.3 - 0.8
31/04:29pm 9.4 -6.4 7.5 88 0.9 W 80 95 43 51 991.2 - 0.8
31/04:27pm 9.4 -6.8 7.3 87 1.0 W 82 95 44 51 991.1 - 0.8
31/04:26pm 9.8 -2.3 7.7 87 1.0 W 61 95 33 51 991.1 - 0.6
31/04:00pm 11.2 0.5 8.1 81 1.5 W 54 72 29 39 990.2 990.2 0.0
31/03:30pm 12.3 0.7 8.4 77 1.9 W 59 87 32 47 989.0 - 0.0
31/03:21pm 14.5 3.4 8.7 68 2.9 W 57 87 31 47 988.8 - 0.0
31/03:00pm 16.6 6.0 6.7 52 4.9 NW 52 76 28 41 988.0 988.0 0.0
31/02:30pm 17.1 5.0 6.3 49 5.3 NW 59 85 32 46 988.0 - 0.0
31/02:00pm 17.5 5.1 6.7 49 5.4 NW 61 80 33 43 988.6 988.6 0.0
31/01:30pm 17.7 7.6 7.2 50 5.3 NW 50 72 27 39 988.9 - 0.0
31/01:00pm 17.9 8.6 7.6 51 5.3 NW 46 72 25 39 989.5 989.5 0.0
31/12:30pm 17.9 7.2 6.4 47 5.7 NNW 52 74 28 40 990.0 - 0.0
31/12:00pm 18.0 6.6 7.4 50 5.4 NW 57 89 31 48 991.2 991.2 0.0
31/11:30am 17.5 6.0 7.0 50 5.2 NW 57 78 31 42 992.5 - 0.0
31/11:00am 17.4 5.9 7.2 51 5.1 NW 57 113 31 61 993.7 993.7 0.0
31/10:54am 17.3 5.7 6.5 49 5.3 NW 57 113 31 61 993.8 - 0.0
31/10:30am 17.0 5.7 7.1 52 4.9 NW 56 83 30 45 994.3 - 0.0
31/10:00am 16.6 5.7 7.3 54 4.7 NW 54 82 29 44 995.2 995.2 0.0
31/09:30am 16.2 5.3 7.2 55 4.5 NW 54 74 29 40 995.8 - 0.0
31/09:00am 15.8 4.9 7.3 57 4.2 NW 54 80 29 43 996.2 996.2 0.2
31/08:30am 15.7 4.8 7.2 57 4.2 NW 54 80 29 43 996.5 - 0.2
31/08:00am 15.5 4.5 7.0 57 4.2 NW 54 74 29 40 997.1 997.1 0.2
31/07:30am 15.5 4.8 6.5 55 4.4 NW 52 76 28 41 997.2 - 0.2
31/07:00am 15.3 4.6 6.3 55 4.4 NW 52 70 28 38 997.6 997.6 0.2
31/06:30am 15.0 4.7 6.6 57 4.1 NNW 50 69 27 37 997.7 - 0.2
31/06:00am 15.0 6.0 7.1 59 3.9 NW 44 65 24 35 998.3 998.3 0.2
31/05:30am 15.5 4.5 6.8 56 4.3 NW 54 74 29 40 998.2 - 0.2
31/05:05am 15.2 5.6 8.0 62 3.6 NW 48 69 26 37 998.6 - 0.2
31/05:00am 15.2 5.3 8.2 63 3.5 NW 50 63 27 34 998.7 998.7 0.2
31/04:42am 14.9 5.1 8.6 66 3.2 NW 50 70 27 38 998.9 - 0.2
31/04:30am 15.0 6.3 8.3 64 3.4 NW 44 61 24 33 999.1 - 0.2
31/04:00am 15.4 4.3 8.2 62 3.6 NW 56 78 30 42 999.4 999.4 0.2
31/03:30am 14.7 6.2 8.6 67 3.1 NW 43 61 23 33 999.9 - 0.2
31/03:00am 14.7 7.0 8.6 67 3.1 NW 39 57 21 31 1000.3 1000.3 0.2
31/02:30am 15.2 6.4 8.2 63 3.5 NW 44 67 24 36 1000.6 - 0.2
31/02:01am 15.2 5.8 8.7 65 3.3 NW 48 67 26 36 1001.0 - 0.2
31/02:00am 15.3 6.2 8.5 64 3.5 NW 46 63 25 34 1001.0 1001.0 0.2
31/01:46am 15.0 6.6 8.9 67 3.1 NW 43 72 23 39 1001.4 - 0.2
31/01:30am 14.9 6.8 8.6 66 3.2 NW 41 57 22 31 1001.4 - 0.2
31/01:10am 15.0 7.7 8.7 66 3.2 NW 37 56 20 30 1001.7 - 0.2
31/01:00am 15.1 6.7 8.8 66 3.2 NW 43 59 23 32 1001.9 1001.9 0.2
31/12:30am 15.1 5.0 8.8 66 3.2 NW 52 70 28 38 1002.3 - 0.2
31/12:00am 15.1 5.1 9.2 68 3.0 NW 52 72 28 39 1002.7 1002.7 0.2
 
Date/Time
EST
Temp
°C
App
Temp
°C
Dew
Point
Rel
Hum
%
Delta-T
°C
Wind Press
QNH
hPa
Press
MSL
hPa
Rain
since 9 am
mm
Dir
 
Spd
km/h
Gust
km/h
Spd
kts
Gust
kts
30/11:30pm 14.9 5.8 9.9 72 2.6 NW 48 69 26 37 1003.1 - 0.2
30/11:14pm 15.0 6.7 10.2 73 2.5 NW 44 63 24 34 1003.2 - 0.2
30/11:00pm 15.0 6.4 10.2 73 2.5 NW 46 61 25 33 1003.3 1003.3 0.2
30/10:30pm 14.9 6.7 10.3 74 2.4 NW 44 63 24 34 1003.7 - 0.2
30/10:00pm 14.6 7.5 10.8 78 2.0 NW 39 57 21 31 1003.8 1003.8 0.2
30/09:36pm 14.4 7.7 11.0 80 1.8 NW 37 57 20 31 1004.0 - 0.2
30/09:30pm 14.5 7.5 11.3 81 1.7 NW 39 52 21 28 1004.0 - 0.2
30/09:20pm 14.4 7.8 11.4 82 1.6 NW 37 56 20 30 1004.2 - 0.2
30/09:00pm 14.2 8.0 11.4 83 1.5 NW 35 50 19 27 1004.3 1004.3 0.2
30/08:30pm 14.0 7.0 11.2 83 1.5 NW 39 57 21 31 1004.3 - 0.2
30/08:00pm 14.2 7.3 11.5 84 1.4 NW 39 57 21 31 1004.8 1004.8 0.2
30/07:55pm 14.1 7.1 11.4 84 1.4 NW 39 57 21 31 1004.8 - 0.2
30/07:30pm 14.4 8.7 11.7 84 1.4 NW 33 48 18 26 1004.8 - 0.2
30/07:29pm 14.3 8.5 11.6 84 1.4 NW 33 48 18 26 1004.8 - 0.2
30/07:00pm 14.2 8.6 11.5 84 1.4 WNW 32 43 17 23 1005.1 1005.1 0.2
30/06:30pm 14.3 7.7 11.5 83 1.5 WNW 37 50 20 27 1005.1 - 0.2
30/06:28pm 14.3 7.7 11.5 83 1.5 WNW 37 52 20 28 1005.1 - 0.2
30/06:00pm 14.4 6.7 11.4 82 1.6 WNW 43 63 23 34 1005.0 1005.0 0.2
30/05:39pm 14.4 7.1 11.4 82 1.6 WNW 41 61 22 33 1004.5 - 0.2
30/05:30pm 14.3 6.6 11.5 83 1.5 WNW 43 57 23 31 1004.5 - 0.2
30/05:25pm 14.2 7.3 11.5 84 1.4 WNW 39 57 21 31 1004.4 - 0.2
30/05:18pm 14.0 7.1 11.5 85 1.3 WNW 39 54 21 29 1004.5 - 0.2
30/05:16pm 13.9 6.9 11.4 85 1.3 WNW 39 56 21 30 1004.4 - 0.2
30/05:06pm 13.8 6.0 11.1 84 1.4 WNW 43 61 23 33 1004.4 - 0.2
30/05:02pm 14.0 6.6 11.2 83 1.5 WNW 41 61 22 33 1004.4 - 0.2
30/05:00pm 14.1 6.3 11.1 82 1.6 WNW 43 61 23 33 1004.3 1004.3 0.2
30/04:36pm 14.6 6.6 11.0 79 1.9 WNW 44 63 24 34 1004.1 - 0.2
30/04:30pm 14.7 6.6 10.9 78 2.0 WNW 44 57 24 31 1004.0 - 0.2
30/04:11pm 14.7 7.2 10.9 78 2.0 WNW 41 59 22 32 1003.8 - 0.2
30/04:00pm 14.7 7.2 10.7 77 2.1 WNW 41 54 22 29 1003.9 1003.9 0.2
30/03:56pm 14.7 7.2 10.7 77 2.1 WNW 41 59 22 32 1003.8 - 0.2
30/03:30pm 14.9 6.9 10.5 75 2.3 WNW 43 57 23 31 1004.1 - 0.2
30/03:01pm 15.3 8.2 10.9 75 2.3 WNW 39 61 21 33 1004.1 - 0.2
30/03:00pm 15.3 8.2 10.9 75 2.3 WNW 39 56 21 30 1004.1 1004.1 0.2
30/02:40pm 15.2 7.1 10.6 74 2.4 WNW 44 65 24 35 1004.2 - 0.2
30/02:30pm 15.1 7.1 10.5 74 2.4 WNW 43 56 23 30 1004.2 - 0.2
30/02:20pm 15.2 7.7 10.8 75 2.3 WNW 41 59 22 32 1004.3 - 0.0
30/02:00pm 15.0 7.0 10.6 75 2.3 WNW 43 57 23 31 1004.5 1004.5 0.0
30/01:33pm 14.6 7.0 10.4 76 2.2 WNW 41 59 22 32 1004.8 - 0.0
30/01:30pm 14.7 6.7 10.5 76 2.2 WNW 43 59 23 32 1004.8 - 0.0
30/01:06pm 14.8 7.6 10.6 76 2.2 WNW 39 59 21 32 1005.2 - 0.0
30/01:00pm 14.5 7.2 10.1 75 2.3 WNW 39 56 21 30 1005.3 1005.3 0.0
30/12:30pm 15.2 7.1 10.6 74 2.4 WNW 44 59 24 32 1005.4 - 0.0
30/12:22pm 14.9 6.3 10.3 74 2.4 WNW 46 65 25 35 1005.5 - 0.0

Other Formats:

Comma delimited format used in spreadsheet applications
http://www.bom.gov.au/fwo/IDT60801/IDT60801.94980.axf

JavaScript Object Notation format (JSON) in row-major order
http://www.bom.gov.au/fwo/IDT60801/IDT60801.94980.json